createdAt,value
2019-03-01T00:01:42.618Z,7.00
2019-03-01T00:04:14.743Z,7.50
2019-03-01T00:06:52.628Z,8.03
2019-03-01T00:09:42.444Z,7.03
2019-03-01T00:12:41.580Z,8.70
2019-03-01T00:15:43.611Z,8.03
2019-03-01T00:18:21.182Z,9.57
2019-03-01T00:21:07.686Z,8.53
2019-03-01T00:23:39.549Z,7.30
2019-03-01T00:26:14.377Z,7.57
2019-03-01T00:28:47.096Z,8.50
2019-03-01T00:31:21.717Z,8.27
2019-03-01T00:34:05.388Z,8.07
2019-03-01T00:36:53.814Z,7.60
2019-03-01T00:39:37.237Z,8.37
2019-03-01T00:42:26.906Z,7.63
2019-03-01T00:44:55.755Z,7.73
2019-03-01T00:47:24.596Z,7.53
2019-03-01T00:49:53.438Z,7.20
2019-03-01T00:52:22.351Z,7.37
2019-03-01T00:54:51.385Z,7.77
2019-03-01T00:57:20.224Z,7.87
2019-03-01T00:59:49.056Z,9.07
2019-03-01T01:02:17.923Z,8.03
2019-03-01T01:04:46.773Z,8.23
2019-03-01T01:07:15.610Z,8.13
2019-03-01T01:09:44.466Z,7.40
2019-03-01T01:12:13.293Z,8.57
2019-03-01T01:14:42.205Z,8.70
2019-03-01T01:17:11.094Z,8.33
2019-03-01T01:19:39.963Z,8.60
2019-03-01T01:22:08.824Z,8.10
2019-03-01T01:24:37.661Z,8.00
2019-03-01T01:27:06.488Z,8.40
2019-03-01T01:29:35.377Z,8.00
2019-03-01T01:32:04.224Z,8.60
2019-03-01T01:34:33.057Z,8.63
2019-03-01T01:37:01.897Z,9.37
2019-03-01T01:39:30.774Z,11.70
2019-03-01T01:41:59.620Z,12.60
2019-03-01T01:44:28.450Z,9.33
2019-03-01T01:46:57.275Z,10.00
2019-03-01T01:49:26.115Z,9.27
2019-03-01T01:51:54.937Z,9.07
2019-03-01T01:54:23.758Z,9.07
2019-03-01T01:56:52.616Z,10.43
2019-03-01T01:59:21.431Z,9.47
2019-03-01T02:01:51.344Z,9.40
2019-03-01T02:04:20.173Z,9.47
2019-03-01T02:06:49.004Z,9.17
2019-03-01T02:09:21.241Z,9.00
2019-03-01T02:11:50.270Z,8.97
2019-03-01T02:14:19.084Z,9.03
2019-03-01T02:16:47.934Z,9.27
2019-03-01T02:19:16.822Z,9.30
2019-03-01T02:21:45.669Z,10.10
2019-03-01T02:24:14.560Z,10.17
2019-03-01T02:26:43.389Z,8.67
2019-03-01T02:29:12.240Z,9.20
2019-03-01T02:31:44.184Z,9.73
2019-03-01T02:34:13.029Z,9.70
2019-03-01T02:36:41.871Z,9.77
2019-03-01T02:39:10.912Z,9.57
2019-03-01T02:41:39.725Z,8.93
2019-03-01T02:44:08.672Z,8.10
2019-03-01T02:46:37.575Z,8.83
2019-03-01T02:49:06.406Z,8.20
2019-03-01T02:51:35.236Z,9.03
2019-03-01T02:54:04.155Z,8.83
2019-03-01T02:56:32.996Z,7.97
2019-03-01T02:59:01.882Z,8.30
2019-03-01T03:01:30.781Z,7.90
2019-03-01T03:03:59.604Z,7.87
2019-03-01T03:06:39.129Z,8.37
2019-03-01T03:09:08.782Z,6.93
2019-03-01T03:11:37.736Z,6.03
2019-03-01T03:14:06.572Z,7.37
2019-03-01T03:16:35.399Z,7.50
2019-03-01T03:19:04.234Z,8.73
2019-03-01T03:21:33.073Z,8.53
2019-03-01T03:24:01.929Z,8.70
2019-03-01T03:26:30.826Z,8.90
2019-03-01T03:28:59.677Z,8.53
2019-03-01T03:31:28.506Z,7.87
2019-03-01T03:33:57.373Z,9.37
2019-03-01T03:36:26.269Z,9.07
2019-03-01T03:38:55.155Z,8.67
2019-03-01T03:41:23.987Z,9.13
2019-03-01T03:43:52.847Z,10.17
2019-03-01T03:46:21.666Z,9.87
2019-03-01T03:48:50.518Z,11.03
2019-03-01T03:51:19.348Z,10.13
2019-03-01T03:53:48.181Z,9.40
2019-03-01T03:56:17.023Z,9.57
2019-03-01T03:58:46.111Z,9.90
2019-03-01T04:01:14.950Z,10.13
2019-03-01T04:03:43.853Z,10.37
2019-03-01T04:06:12.821Z,8.70
2019-03-01T04:08:41.715Z,7.97
2019-03-01T04:11:10.561Z,9.40
2019-03-01T04:13:39.453Z,8.40
2019-03-01T04:16:08.290Z,8.73
2019-03-01T04:18:37.099Z,8.40
2019-03-01T04:21:05.964Z,8.77
2019-03-01T04:23:34.769Z,10.73
2019-03-01T04:26:03.643Z,7.77
2019-03-01T04:28:32.493Z,10.00
2019-03-01T04:31:02.978Z,8.97
2019-03-01T04:33:31.864Z,8.70
2019-03-01T04:36:00.693Z,8.50
2019-03-01T04:38:29.544Z,8.63
2019-03-01T04:40:58.403Z,7.83
2019-03-01T04:43:27.223Z,8.17
2019-03-01T04:45:56.126Z,8.57
2019-03-01T04:48:24.964Z,8.30
2019-03-01T04:50:53.777Z,8.10
2019-03-01T04:53:22.712Z,7.47
2019-03-01T04:55:51.536Z,8.07
2019-03-01T04:58:20.349Z,8.87
2019-03-01T05:00:49.188Z,7.73
2019-03-01T05:03:18.020Z,7.27
2019-03-01T05:05:46.894Z,7.57
2019-03-01T05:08:15.708Z,7.47
2019-03-01T05:10:44.552Z,7.60
2019-03-01T05:13:13.387Z,7.13
2019-03-01T05:15:42.237Z,6.93
2019-03-01T05:18:11.087Z,7.90
2019-03-01T05:20:39.912Z,9.73
2019-03-01T05:23:08.768Z,8.43
2019-03-01T05:25:37.672Z,8.17
2019-03-01T05:28:06.510Z,7.97
2019-03-01T05:30:35.347Z,9.13
2019-03-01T05:33:04.168Z,8.77
2019-03-01T05:35:33.028Z,8.83
2019-03-01T05:38:01.878Z,8.47
2019-03-01T05:40:30.712Z,8.17
2019-03-01T05:42:59.605Z,8.97
2019-03-01T05:45:32.172Z,9.13
2019-03-01T05:48:00.998Z,8.93
2019-03-01T05:50:29.856Z,9.00
2019-03-01T05:52:58.675Z,9.93
2019-03-01T05:55:27.512Z,10.40
2019-03-01T05:58:22.012Z,10.33
2019-03-01T06:00:52.556Z,9.33
2019-03-01T06:03:42.209Z,10.40
2019-03-01T06:06:29.073Z,9.50
2019-03-01T06:09:27.188Z,10.50
2019-03-01T06:12:27.891Z,9.10
2019-03-01T06:15:31.522Z,10.17
2019-03-01T06:18:19.793Z,9.67
2019-03-01T06:21:03.412Z,10.03
2019-03-01T06:23:38.229Z,11.43
2019-03-01T06:26:31.431Z,12.37
2019-03-01T06:29:14.926Z,10.47
2019-03-01T06:32:01.604Z,11.10
2019-03-01T06:34:39.174Z,10.83
2019-03-01T06:37:27.422Z,10.30
2019-03-01T06:40:12.360Z,10.87
2019-03-01T06:43:01.411Z,10.83
2019-03-01T06:45:51.034Z,11.77
2019-03-01T06:48:21.450Z,13.13
2019-03-01T06:50:51.858Z,11.70
2019-03-01T06:53:20.835Z,13.00
2019-03-01T06:55:49.678Z,12.80
2019-03-01T06:58:20.864Z,13.07
2019-03-01T07:00:51.625Z,13.27
2019-03-01T07:03:20.491Z,12.57
2019-03-01T07:05:49.334Z,13.37
2019-03-01T07:08:18.364Z,13.83
2019-03-01T07:10:47.443Z,13.97
2019-03-01T07:13:16.326Z,14.20
2019-03-01T07:15:45.204Z,13.07
2019-03-01T07:18:14.384Z,11.60
2019-03-01T07:20:43.301Z,11.23
2019-03-01T07:23:12.160Z,11.73
2019-03-01T07:25:42.483Z,12.77
2019-03-01T07:28:13.207Z,13.63
2019-03-01T07:30:42.111Z,13.47
2019-03-01T07:33:10.948Z,12.17
2019-03-01T07:35:39.914Z,13.43
2019-03-01T07:38:08.937Z,12.00
2019-03-01T07:40:37.968Z,12.57
2019-03-01T07:43:07.755Z,12.30
2019-03-01T07:45:39.921Z,14.13
2019-03-01T07:48:08.844Z,12.07
2019-03-01T07:50:37.690Z,13.10
2019-03-01T07:53:06.889Z,12.50
2019-03-01T07:55:35.745Z,12.50
2019-03-01T07:58:04.842Z,13.70
2019-03-01T08:00:33.906Z,13.30
2019-03-01T08:03:02.815Z,13.90
2019-03-01T08:05:32.220Z,13.83
2019-03-01T08:08:03.486Z,13.17
2019-03-01T08:10:31.737Z,13.53
2019-03-01T08:13:00.562Z,13.70
2019-03-01T08:15:29.491Z,13.97
2019-03-01T08:18:00.600Z,12.67
2019-03-01T08:20:30.387Z,13.70
2019-03-01T08:23:00.832Z,13.30
2019-03-01T08:25:30.673Z,14.03
2019-03-01T08:27:59.573Z,17.23
2019-03-01T08:30:28.468Z,13.57
2019-03-01T08:32:57.427Z,12.67
2019-03-01T08:35:28.345Z,13.20
2019-03-01T08:37:56.911Z,14.40
2019-03-01T08:40:25.979Z,13.50
2019-03-01T08:42:54.907Z,13.60
2019-03-01T08:45:23.981Z,14.60
2019-03-01T08:47:55.414Z,13.63
2019-03-01T08:50:23.409Z,13.93
2019-03-01T08:52:52.360Z,14.33
2019-03-01T08:55:30.077Z,13.63
2019-03-01T08:58:02.857Z,15.20
2019-03-01T09:00:41.586Z,14.03
2019-03-01T09:03:22.984Z,15.43
2019-03-01T09:05:52.125Z,14.80
2019-03-01T09:08:21.433Z,14.97
2019-03-01T09:10:50.902Z,15.20
2019-03-01T09:13:19.776Z,14.10
2019-03-01T09:15:49.463Z,14.63
2019-03-01T09:18:19.468Z,15.90
2019-03-01T09:20:48.364Z,14.70
2019-03-01T09:23:24.353Z,14.77
2019-03-01T09:25:49.787Z,14.97
2019-03-01T09:28:18.915Z,14.50
2019-03-01T09:30:47.853Z,14.57
2019-03-01T09:33:17.279Z,14.67
2019-03-01T09:35:52.322Z,14.17
2019-03-01T09:38:21.363Z,13.77
2019-03-01T09:40:50.433Z,14.10
2019-03-01T09:43:19.400Z,14.67
2019-03-01T09:45:48.859Z,14.20
2019-03-01T09:48:19.201Z,14.70
2019-03-01T09:50:48.169Z,14.10
2019-03-01T09:53:17.166Z,13.20
2019-03-01T09:55:46.171Z,13.70
2019-03-01T09:58:15.149Z,13.67
2019-03-01T10:00:56.158Z,13.90
2019-03-01T10:03:23.523Z,12.20
2019-03-01T10:05:52.390Z,12.77
2019-03-01T10:08:22.878Z,14.03
2019-03-01T10:10:51.777Z,13.07
2019-03-01T10:13:20.612Z,13.40
2019-03-01T10:15:49.323Z,14.40
2019-03-01T10:18:18.115Z,12.80
2019-03-01T10:20:46.860Z,13.07
2019-03-01T10:23:15.571Z,12.30
2019-03-01T10:25:44.286Z,12.37
2019-03-01T10:28:13.120Z,12.90
2019-03-01T10:30:41.858Z,13.93
2019-03-01T10:33:10.654Z,13.57
2019-03-01T10:35:39.358Z,13.57
2019-03-01T10:38:08.134Z,13.70
2019-03-01T10:40:37.052Z,14.37
2019-03-01T10:43:05.825Z,13.93
2019-03-01T10:45:34.584Z,13.83
2019-03-01T10:48:04.735Z,14.23
2019-03-01T10:50:33.439Z,13.97
2019-03-01T10:53:04.670Z,13.67
2019-03-01T10:55:33.473Z,13.57
2019-03-01T10:58:02.163Z,14.23
2019-03-01T11:00:32.420Z,14.97
2019-03-01T11:03:01.125Z,15.57
2019-03-01T11:05:30.020Z,16.47
2019-03-01T11:07:58.826Z,16.77
2019-03-01T11:10:32.773Z,23.23
2019-03-01T11:13:01.660Z,15.23
2019-03-01T11:15:30.607Z,16.30
2019-03-01T11:17:59.410Z,15.73
2019-03-01T11:20:28.366Z,16.03
2019-03-01T11:22:58.570Z,15.23
2019-03-01T11:25:27.331Z,16.23
2019-03-01T11:27:56.321Z,16.43
2019-03-01T11:30:36.056Z,16.15
2019-03-01T11:33:05.026Z,16.82
2019-03-01T11:35:33.719Z,15.80
2019-03-01T11:38:02.393Z,16.45
2019-03-01T11:40:36.069Z,15.40
2019-03-01T11:43:05.502Z,16.32
2019-03-01T11:45:34.406Z,18.85
2019-03-01T11:48:03.788Z,15.53
2019-03-01T11:50:32.531Z,15.00
2019-03-01T11:53:01.263Z,15.38
2019-03-01T11:55:30.061Z,16.12
2019-03-01T11:57:58.754Z,14.38
2019-03-01T12:00:28.851Z,14.83
2019-03-01T12:02:57.542Z,16.37
2019-03-01T12:05:26.227Z,15.43
2019-03-01T12:07:54.962Z,15.77
2019-03-01T12:10:31.497Z,16.77
2019-03-01T12:13:00.411Z,15.10
2019-03-01T12:15:29.266Z,15.33
2019-03-01T12:17:57.993Z,14.87
2019-03-01T12:20:29.336Z,16.57
2019-03-01T12:22:58.760Z,16.05
2019-03-01T12:25:28.231Z,15.15
2019-03-01T12:27:56.896Z,13.93
2019-03-01T12:30:26.680Z,14.60
2019-03-01T12:32:55.428Z,14.23
2019-03-01T12:35:24.218Z,14.60
2019-03-01T12:37:53.079Z,12.70
2019-03-01T12:40:29.110Z,14.53
2019-03-01T12:42:57.769Z,13.33
2019-03-01T12:45:26.533Z,13.50
2019-03-01T12:47:55.237Z,12.45
2019-03-01T12:50:24.053Z,14.53
2019-03-01T12:52:52.833Z,14.75
2019-03-01T12:55:31.313Z,14.35
2019-03-01T12:58:00.043Z,15.23
2019-03-01T13:00:31.707Z,13.98
2019-03-01T13:03:00.452Z,14.90
2019-03-01T13:05:30.354Z,15.90
2019-03-01T13:07:59.425Z,15.50
2019-03-01T13:10:36.790Z,14.13
2019-03-01T13:13:08.140Z,13.93
2019-03-01T13:15:35.026Z,14.70
2019-03-01T13:18:04.950Z,14.57
2019-03-01T13:20:36.945Z,13.50
2019-03-01T13:23:05.793Z,13.10
2019-03-01T13:25:34.809Z,13.00
2019-03-01T13:28:03.484Z,12.97
2019-03-01T13:30:35.708Z,12.47
2019-03-01T13:33:05.377Z,12.70
2019-03-01T13:35:37.970Z,12.67
2019-03-01T13:38:06.649Z,12.23
2019-03-01T13:40:35.375Z,13.80
2019-03-01T13:43:10.046Z,13.50
2019-03-01T13:45:40.378Z,12.63
2019-03-01T13:48:09.089Z,13.53
2019-03-01T13:50:38.343Z,11.97
2019-03-01T13:53:08.379Z,12.00
2019-03-01T13:55:37.263Z,10.90
2019-03-01T13:58:06.169Z,10.00
2019-03-01T14:00:35.362Z,10.13
2019-03-01T14:03:04.534Z,10.93
2019-03-01T14:05:33.258Z,15.85
2019-03-01T14:08:08.663Z,11.28
2019-03-01T14:10:32.437Z,11.78
2019-03-01T14:13:01.130Z,12.67
2019-03-01T14:15:30.111Z,11.73
2019-03-01T14:18:01.286Z,10.60
2019-03-01T14:20:29.398Z,11.00
2019-03-01T14:22:58.128Z,11.07
2019-03-01T14:25:26.829Z,10.70
2019-03-01T14:27:55.500Z,11.47
2019-03-01T14:30:30.257Z,12.37
2019-03-01T14:32:58.810Z,11.17
2019-03-01T14:35:27.794Z,11.63
2019-03-01T14:37:56.473Z,11.47
2019-03-01T14:40:25.164Z,11.43
2019-03-01T14:42:53.873Z,10.73
2019-03-01T14:45:31.207Z,11.37
2019-03-01T14:48:01.137Z,11.60
2019-03-01T14:50:33.809Z,10.97
2019-03-01T14:53:01.802Z,10.13
2019-03-01T14:55:37.031Z,10.20
2019-03-01T14:58:08.635Z,10.27
2019-03-01T15:00:49.626Z,10.17
2019-03-01T15:03:17.361Z,11.90
2019-03-01T15:05:46.658Z,11.50
2019-03-01T15:08:15.363Z,12.63
2019-03-01T15:10:44.351Z,12.83
2019-03-01T15:13:13.246Z,11.90
2019-03-01T15:15:42.070Z,12.50
2019-03-01T15:18:13.907Z,13.00
2019-03-01T15:20:42.615Z,13.27
2019-03-01T15:23:11.373Z,14.13
2019-03-01T15:25:40.042Z,14.60
2019-03-01T15:28:08.851Z,13.53
2019-03-01T15:30:37.556Z,15.50
2019-03-01T15:33:08.519Z,14.80
2019-03-01T15:35:39.776Z,14.97
2019-03-01T15:38:07.110Z,16.13
2019-03-01T15:40:35.894Z,15.63
2019-03-01T15:43:04.564Z,16.83
2019-03-01T15:45:33.426Z,15.83
2019-03-01T15:48:03.112Z,15.87
2019-03-01T15:50:32.684Z,15.73
2019-03-01T15:53:01.379Z,15.47
2019-03-01T15:55:30.039Z,17.00
2019-03-01T15:57:58.730Z,18.73
2019-03-01T16:00:29.432Z,15.43
2019-03-01T16:02:57.954Z,15.13
2019-03-01T16:05:27.084Z,15.73
2019-03-01T16:07:55.768Z,15.40
2019-03-01T16:10:24.463Z,17.10
2019-03-01T16:12:53.119Z,16.03
2019-03-01T16:15:21.823Z,15.53
2019-03-01T16:17:50.556Z,17.63
2019-03-01T16:20:20.443Z,18.23
2019-03-01T16:22:51.106Z,16.63
2019-03-01T16:25:21.567Z,17.30
2019-03-01T16:27:50.775Z,18.50
2019-03-01T16:30:21.810Z,19.40
2019-03-01T16:32:50.830Z,20.20
2019-03-01T16:35:22.882Z,20.43
2019-03-01T16:37:57.982Z,19.00
2019-03-01T16:40:26.637Z,20.97
2019-03-01T16:42:55.325Z,20.60
2019-03-01T16:45:24.101Z,20.30
2019-03-01T16:47:52.777Z,19.23
2019-03-01T16:50:21.696Z,19.73
2019-03-01T16:52:50.396Z,18.30
2019-03-01T16:55:24.421Z,17.20
2019-03-01T16:57:52.345Z,17.57
2019-03-01T17:00:23.649Z,18.20
2019-03-01T17:03:06.703Z,18.03
2019-03-01T17:05:35.671Z,17.17
2019-03-01T17:08:06.146Z,18.00
2019-03-01T17:10:35.051Z,17.40
2019-03-01T17:13:03.721Z,18.60
2019-03-01T17:15:32.404Z,19.00
2019-03-01T17:18:01.100Z,19.03
2019-03-01T17:20:30.085Z,24.17
2019-03-01T17:22:59.797Z,18.93
2019-03-01T17:25:29.146Z,17.77
2019-03-01T17:27:57.825Z,19.20
2019-03-01T17:30:29.330Z,18.07
2019-03-01T17:32:58.011Z,18.77
2019-03-01T17:35:26.693Z,19.93
2019-03-01T17:37:55.384Z,19.53
2019-03-01T17:40:24.079Z,19.30
2019-03-01T17:42:53.172Z,18.50
2019-03-01T17:45:26.779Z,18.13
2019-03-01T17:47:55.617Z,18.60
2019-03-01T17:50:24.346Z,19.23
2019-03-01T17:52:53.008Z,18.80
2019-03-01T17:55:30.517Z,18.83
2019-03-01T17:57:59.180Z,20.13
2019-03-01T18:00:40.044Z,19.73
2019-03-01T18:03:08.720Z,18.97
2019-03-01T18:05:40.603Z,20.00
2019-03-01T18:08:07.854Z,21.07
2019-03-01T18:10:36.503Z,19.33
2019-03-01T18:13:05.219Z,21.03
2019-03-01T18:15:33.889Z,21.07
2019-03-01T18:18:02.563Z,21.03
2019-03-01T18:20:33.868Z,20.73
2019-03-01T18:23:02.201Z,20.93
2019-03-01T18:25:32.137Z,21.50
2019-03-01T18:28:00.846Z,20.13
2019-03-01T18:30:31.697Z,21.63
2019-03-01T18:33:00.353Z,20.50
2019-03-01T18:35:29.031Z,20.43
2019-03-01T18:37:57.708Z,20.53
2019-03-01T18:40:26.377Z,20.07
2019-03-01T18:42:55.061Z,21.30
2019-03-01T18:45:25.333Z,19.93
2019-03-01T18:47:54.023Z,20.47
2019-03-01T18:50:27.610Z,21.40
2019-03-01T18:52:56.118Z,22.53
2019-03-01T18:55:24.815Z,21.30
2019-03-01T18:57:53.536Z,21.07
2019-03-01T19:00:32.521Z,23.07
2019-03-01T19:03:04.360Z,23.10
2019-03-01T19:05:31.990Z,25.77
2019-03-01T19:08:04.388Z,23.03
2019-03-01T19:10:31.496Z,23.53
2019-03-01T19:13:00.159Z,21.57
2019-03-01T19:15:28.840Z,21.17
2019-03-01T19:17:57.817Z,29.37
2019-03-01T19:20:44.241Z,39.27
2019-03-01T19:23:13.016Z,40.30
2019-03-01T19:25:41.823Z,38.90
2019-03-01T19:28:10.472Z,37.97
2019-03-01T19:30:39.140Z,32.60
2019-03-01T19:33:07.831Z,34.27
2019-03-01T19:35:36.533Z,37.10
2019-03-01T19:38:05.200Z,38.03
2019-03-01T19:40:33.867Z,37.37
2019-03-01T19:43:02.572Z,30.80
2019-03-01T19:45:31.238Z,34.50
2019-03-01T19:48:03.205Z,25.13
2019-03-01T19:50:30.870Z,23.13
2019-03-01T19:52:59.555Z,19.83
2019-03-01T19:55:28.233Z,18.73
2019-03-01T19:57:56.916Z,19.27
2019-03-01T20:00:33.336Z,19.00
2019-03-01T20:03:02.056Z,18.87
2019-03-01T20:05:36.263Z,18.63
2019-03-01T20:08:04.933Z,18.80
2019-03-01T20:10:33.610Z,15.70
2019-03-01T20:13:02.332Z,15.30
2019-03-01T20:15:31.596Z,14.63
2019-03-01T20:18:00.280Z,14.53
2019-03-01T20:20:33.121Z,13.80
2019-03-01T20:23:00.572Z,15.23
2019-03-01T20:25:29.258Z,14.97
2019-03-01T20:27:57.937Z,13.57
2019-03-01T20:30:30.556Z,13.20
2019-03-01T20:32:59.432Z,13.33
2019-03-01T20:35:28.264Z,12.70
2019-03-01T20:38:00.381Z,12.03
2019-03-01T20:40:28.257Z,11.80
2019-03-01T20:43:00.470Z,13.53
2019-03-01T20:45:31.445Z,11.77
2019-03-01T20:48:00.291Z,12.63
2019-03-01T20:50:28.978Z,11.80
2019-03-01T20:52:57.748Z,12.10
2019-03-01T20:55:26.427Z,12.53
2019-03-01T20:57:55.201Z,12.10
2019-03-01T21:00:29.781Z,12.13
2019-03-01T21:02:58.409Z,12.60
2019-03-01T21:05:28.969Z,11.30
2019-03-01T21:07:57.492Z,12.03
2019-03-01T21:10:30.423Z,12.70
2019-03-01T21:12:59.093Z,13.07
2019-03-01T21:15:27.774Z,12.27
2019-03-01T21:17:58.428Z,13.50
2019-03-01T21:20:26.934Z,11.87
2019-03-01T21:22:55.593Z,12.50
2019-03-01T21:25:25.062Z,12.20
2019-03-01T21:27:53.775Z,12.87
2019-03-01T21:30:27.054Z,12.73
2019-03-01T21:32:55.854Z,13.13
2019-03-01T21:35:24.977Z,13.27
2019-03-01T21:37:53.713Z,15.33
2019-03-01T21:40:22.527Z,16.30
2019-03-01T21:42:52.910Z,16.33
2019-03-01T21:45:22.727Z,18.70
2019-03-01T21:47:51.387Z,20.00
2019-03-01T21:50:20.067Z,18.77
2019-03-01T21:52:48.740Z,17.73
2019-03-01T21:55:18.909Z,14.43
2019-03-01T21:57:47.596Z,13.73
2019-03-01T22:00:18.576Z,18.70
2019-03-01T22:02:48.912Z,19.63
2019-03-01T22:05:17.778Z,20.37
2019-03-01T22:07:46.446Z,19.93
2019-03-01T22:10:15.817Z,19.37
2019-03-01T22:12:44.474Z,18.83
2019-03-01T22:15:21.660Z,17.63
2019-03-01T22:17:49.589Z,17.30
2019-03-01T22:20:18.457Z,18.27
2019-03-01T22:22:47.123Z,17.50
2019-03-01T22:25:16.094Z,16.07
2019-03-01T22:27:44.869Z,15.80
2019-03-01T22:30:16.207Z,17.60
2019-03-01T22:32:45.419Z,16.47
2019-03-01T22:35:14.947Z,16.67
2019-03-01T22:37:43.626Z,16.10
2019-03-01T22:40:12.497Z,16.40
2019-03-01T22:42:41.170Z,15.40
2019-03-01T22:45:14.927Z,15.27
2019-03-01T22:47:43.691Z,15.67
2019-03-01T22:50:14.625Z,15.90
2019-03-01T22:52:43.396Z,17.13
2019-03-01T22:55:14.967Z,16.00
2019-03-01T22:57:44.877Z,15.70
2019-03-01T23:00:30.373Z,15.23
2019-03-01T23:02:59.033Z,15.77
2019-03-01T23:05:27.697Z,17.93
2019-03-01T23:07:56.752Z,15.37
2019-03-01T23:10:26.862Z,14.83
2019-03-01T23:12:55.524Z,15.37
2019-03-01T23:15:24.186Z,15.93
2019-03-01T23:17:52.911Z,15.93
2019-03-01T23:20:26.252Z,16.63
2019-03-01T23:22:52.113Z,15.53
2019-03-01T23:25:20.785Z,16.20
2019-03-01T23:27:49.477Z,17.00
2019-03-01T23:30:18.323Z,16.70
2019-03-01T23:32:48.757Z,16.10
2019-03-01T23:35:18.131Z,16.33
2019-03-01T23:37:47.652Z,15.90
2019-03-01T23:40:16.609Z,16.13
2019-03-01T23:42:45.274Z,15.43
2019-03-01T23:45:17.446Z,14.97
2019-03-01T23:47:44.415Z,13.33
2019-03-01T23:50:13.096Z,12.30
2019-03-01T23:52:41.771Z,12.10
2019-03-01T23:55:10.441Z,13.13
2019-03-01T23:57:41.154Z,12.63
